Main page
METAR-TAF:

METAR-TAF

Airports :

Jinnah International Airport

Karachi, Pakistan

latitude: 24-54N, longitude: 067-08E, elevation: 21 m

Current weather observation

The report was made 6 minutes ago, at 20:00 UTC
Calm wind
Temperature 23°C
Humidity 61%
Pressure 1016 hPa
Visibility: 5000 m
smoke

METAR: OPKC 282000Z 00000KT 5000 FU NSC 23/15 Q1016 NOSIG

Time: 01:06 (20:06 UTC)

Forecast

The report was made 4 hours and 36 minutes ago, at 15:30 UTC
Forecast valid from 28 at 18 UTC to 29 at 24 UTC
Wind 5 kt from the Northwest
Visibility: 4000 m
haze
Temporary
from 29 at 00 UTC to 29 at 06 UTC
Wind 3 kt from variable directions
Visibility: 2000 m
smoke
From 29 at 0800 UTC
Wind 10 kt from the West
Visibility: 5000 m
haze
From 29 at 1800 UTC
Wind 7 kt from the Northwest
Visibility: 4000 m
smoke

TAF: OPKC 281530Z 2818/2924 31005KT 4000 HZ NSC TEMPO 2900/2906 VRB03KT 2000 FU NSC FM290800 27010KT 5000 HZ NSC FM291800 31007KT 31007KT 4000 FU NSC

Weather observations and forecasts of more than 4000 airports (METAR and TAF reports).

The available stations are represented by yellow and red dots on the map.

Hover mouse over dot to see the name of the station.

Then click to see weather observations and forecasts.

To change the map : click on the green buttons with a black cross to zoom in, on the green button with a dash to zoom out, or on the green arrows for adjacent maps.


METAR-TAF: